createdAt,value
2022-10-10T00:01:16.862Z,12.18
2022-10-10T00:03:45.224Z,12.19
2022-10-10T00:06:15.492Z,12.37
2022-10-10T00:08:43.977Z,12.28
2022-10-10T00:11:12.713Z,11.82
2022-10-10T00:13:41.352Z,12.04
2022-10-10T00:16:09.422Z,12.12
2022-10-10T00:18:37.611Z,12.09
2022-10-10T00:21:05.961Z,12.01
2022-10-10T00:23:35.428Z,12.03
2022-10-10T00:26:08.598Z,11.96
2022-10-10T00:28:38.346Z,12.02
2022-10-10T00:31:06.753Z,12.13
2022-10-10T00:33:34.559Z,12.13
2022-10-10T00:36:02.424Z,11.94
2022-10-10T00:38:30.267Z,12.06
2022-10-10T00:40:59.768Z,12.04
2022-10-10T00:43:28.490Z,12.10
2022-10-10T00:45:56.506Z,12.12
2022-10-10T00:48:26.225Z,11.97
2022-10-10T00:50:58.196Z,12.05
2022-10-10T00:53:29.676Z,11.99
2022-10-10T00:56:00.576Z,11.90
2022-10-10T00:58:28.468Z,12.02
2022-10-10T01:00:56.625Z,11.84
2022-10-10T01:03:24.888Z,11.68
2022-10-10T01:05:53.072Z,11.79
2022-10-10T01:08:22.049Z,11.99
2022-10-10T01:11:04.924Z,11.85
2022-10-10T01:13:40.406Z,11.77
2022-10-10T01:16:15.107Z,11.95
2022-10-10T01:18:55.003Z,11.79
2022-10-10T01:21:30.900Z,11.82
2022-10-10T01:24:21.774Z,11.66
2022-10-10T01:27:30.986Z,11.78
2022-10-10T01:30:04.987Z,11.84
2022-10-10T01:32:35.246Z,11.84
2022-10-10T01:35:32.264Z,11.72
2022-10-10T01:38:08.979Z,11.66
2022-10-10T01:40:45.130Z,11.58
2022-10-10T01:43:13.878Z,11.68
2022-10-10T01:45:46.685Z,11.69
2022-10-10T01:48:15.192Z,11.51
2022-10-10T01:50:58.505Z,11.56
2022-10-10T01:53:36.955Z,11.45
2022-10-10T01:56:11.076Z,11.46
2022-10-10T01:58:58.124Z,11.34
2022-10-10T02:01:35.611Z,11.55
2022-10-10T02:04:10.482Z,11.58
2022-10-10T02:06:43.061Z,11.57
2022-10-10T02:09:16.359Z,11.48
2022-10-10T02:11:44.233Z,11.71
2022-10-10T02:14:16.991Z,11.65
2022-10-10T02:16:48.629Z,11.52
2022-10-10T02:19:20.798Z,11.66
2022-10-10T02:21:49.818Z,11.62
2022-10-10T02:24:20.786Z,11.53
2022-10-10T02:26:53.538Z,11.58
2022-10-10T02:29:26.311Z,11.46
2022-10-10T02:32:01.214Z,11.41
2022-10-10T02:34:33.665Z,11.43
2022-10-10T02:37:05.785Z,11.23
2022-10-10T02:39:37.494Z,11.15
2022-10-10T02:42:07.859Z,11.26
2022-10-10T02:44:36.974Z,11.33
2022-10-10T02:47:06.762Z,11.14
2022-10-10T02:49:36.098Z,11.24
2022-10-10T02:52:04.900Z,11.17
2022-10-10T02:54:33.040Z,11.12
2022-10-10T02:57:00.888Z,11.25
2022-10-10T02:59:28.715Z,11.21
2022-10-10T03:01:56.528Z,11.27
2022-10-10T03:04:25.733Z,11.36
2022-10-10T03:06:53.796Z,11.14
2022-10-10T03:09:21.643Z,11.18
2022-10-10T03:11:49.471Z,11.21
2022-10-10T03:14:17.352Z,11.22
2022-10-10T03:16:45.134Z,11.18
2022-10-10T03:19:13.223Z,11.22
2022-10-10T03:21:42.380Z,11.28
2022-10-10T03:24:10.282Z,11.22
2022-10-10T03:26:38.089Z,11.29
2022-10-10T03:29:06.242Z,11.06
2022-10-10T03:31:34.056Z,11.18
2022-10-10T03:34:01.851Z,11.12
2022-10-10T03:36:30.860Z,11.35
2022-10-10T03:39:00.051Z,11.06
2022-10-10T03:41:28.190Z,11.19
2022-10-10T03:43:56.194Z,11.09
2022-10-10T03:46:24.053Z,11.13
2022-10-10T03:48:51.951Z,11.08
2022-10-10T03:51:20.163Z,10.96
2022-10-10T03:53:48.011Z,10.83
2022-10-10T03:56:17.203Z,10.72
2022-10-10T03:58:45.073Z,10.72
2022-10-10T04:01:13.101Z,11.02
2022-10-10T04:03:41.107Z,10.94
2022-10-10T04:06:09.479Z,10.93
2022-10-10T04:08:37.300Z,11.05
2022-10-10T04:11:05.218Z,11.04
2022-10-10T04:13:34.386Z,10.95
2022-10-10T04:16:02.212Z,10.84
2022-10-10T04:18:29.990Z,10.87
2022-10-10T04:20:57.807Z,10.71
2022-10-10T04:23:25.615Z,10.84
2022-10-10T04:25:54.086Z,10.87
2022-10-10T04:28:21.942Z,10.95
2022-10-10T04:30:51.152Z,10.83
2022-10-10T04:33:19.167Z,10.87
2022-10-10T04:35:50.068Z,10.88
2022-10-10T04:38:19.778Z,10.84
2022-10-10T04:40:49.413Z,10.81
2022-10-10T04:43:17.218Z,10.84
2022-10-10T04:45:45.060Z,10.82
2022-10-10T04:48:14.470Z,10.75
2022-10-10T04:50:42.327Z,10.42
2022-10-10T04:53:10.305Z,10.63
2022-10-10T04:55:38.147Z,10.58
2022-10-10T04:58:05.958Z,10.56
2022-10-10T05:00:33.806Z,10.65
2022-10-10T05:03:02.021Z,10.68
2022-10-10T05:05:31.559Z,10.74
2022-10-10T05:07:59.361Z,10.57
2022-10-10T05:10:27.495Z,10.53
2022-10-10T05:12:55.451Z,10.54
2022-10-10T05:15:23.283Z,10.53
2022-10-10T05:17:51.206Z,10.36
2022-10-10T05:20:19.552Z,10.52
2022-10-10T05:22:48.887Z,10.38
2022-10-10T05:25:16.988Z,10.45
2022-10-10T05:27:44.814Z,10.57
2022-10-10T05:30:13.733Z,10.42
2022-10-10T05:32:41.605Z,10.38
2022-10-10T05:35:10.361Z,10.30
2022-10-10T05:37:38.210Z,10.36
2022-10-10T05:40:08.880Z,10.53
2022-10-10T05:42:36.664Z,10.50
2022-10-10T05:45:04.703Z,10.45
2022-10-10T05:47:32.516Z,10.49
2022-10-10T05:50:00.379Z,10.54
2022-10-10T05:52:29.587Z,10.48
2022-10-10T05:54:57.375Z,10.58
2022-10-10T05:57:26.677Z,10.46
2022-10-10T05:59:54.939Z,10.66
2022-10-10T06:02:22.782Z,10.77
2022-10-10T06:04:50.615Z,10.82
2022-10-10T06:07:18.475Z,11.03
2022-10-10T06:09:46.447Z,10.80
2022-10-10T06:12:14.343Z,10.93
2022-10-10T06:14:43.762Z,10.97
2022-10-10T06:17:11.589Z,11.09
2022-10-10T06:19:39.403Z,11.09
2022-10-10T06:22:07.233Z,11.05
2022-10-10T06:24:35.230Z,11.00
2022-10-10T06:27:03.060Z,10.98
2022-10-10T06:29:30.869Z,11.09
2022-10-10T06:32:00.055Z,10.88
2022-10-10T06:34:28.045Z,11.05
2022-10-10T06:36:55.881Z,11.01
2022-10-10T06:39:23.711Z,10.96
2022-10-10T06:41:51.508Z,11.02
2022-10-10T06:44:20.318Z,10.74
2022-10-10T06:46:48.180Z,11.01
2022-10-10T06:49:17.385Z,10.85
2022-10-10T06:51:45.174Z,10.72
2022-10-10T06:54:13.028Z,10.66
2022-10-10T06:56:40.829Z,10.90
2022-10-10T06:59:08.716Z,10.95
2022-10-10T07:01:36.642Z,11.15
2022-10-10T07:04:05.356Z,11.25
2022-10-10T07:06:35.137Z,11.21
2022-10-10T07:09:03.289Z,11.12
2022-10-10T07:11:31.479Z,11.29
2022-10-10T07:13:59.771Z,11.31
2022-10-10T07:16:27.859Z,11.38
2022-10-10T07:18:55.756Z,11.48
2022-10-10T07:21:23.593Z,11.46
2022-10-10T07:23:52.812Z,11.31
2022-10-10T07:26:22.341Z,11.37
2022-10-10T07:28:50.580Z,11.38
2022-10-10T07:31:18.433Z,11.58
2022-10-10T07:33:50.502Z,11.52
2022-10-10T07:36:19.709Z,11.77
2022-10-10T07:38:52.931Z,11.78
2022-10-10T07:41:21.563Z,11.80
2022-10-10T07:43:49.765Z,11.93
2022-10-10T07:46:20.420Z,11.92
2022-10-10T07:48:49.169Z,11.81
2022-10-10T07:51:17.736Z,12.02
2022-10-10T07:53:45.562Z,11.82
2022-10-10T07:56:14.729Z,12.13
2022-10-10T07:58:42.752Z,11.87
2022-10-10T08:01:12.411Z,12.28
2022-10-10T08:03:40.662Z,12.06
2022-10-10T08:06:10.698Z,12.06
2022-10-10T08:08:48.564Z,12.03
2022-10-10T08:11:22.341Z,12.11
2022-10-10T08:13:51.278Z,11.88
2022-10-10T08:16:19.735Z,11.95
2022-10-10T08:18:47.661Z,12.25
2022-10-10T08:21:18.634Z,12.14
2022-10-10T08:23:47.305Z,12.55
2022-10-10T08:26:17.694Z,12.27
2022-10-10T08:28:48.692Z,12.45
2022-10-10T08:31:19.048Z,12.41
2022-10-10T08:33:48.705Z,12.47
2022-10-10T08:36:19.421Z,12.66
2022-10-10T08:38:47.761Z,12.78
2022-10-10T08:41:25.496Z,13.09
2022-10-10T08:43:57.769Z,12.99
2022-10-10T08:46:36.420Z,13.15
2022-10-10T08:49:14.329Z,13.03
2022-10-10T08:51:48.081Z,13.52
2022-10-10T08:54:18.643Z,13.60
2022-10-10T08:56:47.146Z,13.46
2022-10-10T08:59:24.197Z,13.84
2022-10-10T09:02:17.616Z,13.83
2022-10-10T09:04:45.123Z,13.76
2022-10-10T09:07:27.652Z,13.84
2022-10-10T09:10:04.347Z,13.79
2022-10-10T09:12:43.114Z,14.17
2022-10-10T09:15:20.301Z,14.17
2022-10-10T09:17:55.191Z,14.43
2022-10-10T09:20:36.244Z,14.74
2022-10-10T09:23:09.764Z,14.49
2022-10-10T09:25:45.142Z,14.93
2022-10-10T09:28:17.733Z,14.68
2022-10-10T09:30:52.067Z,15.33
2022-10-10T09:33:28.137Z,15.73
2022-10-10T09:35:59.765Z,15.96
2022-10-10T09:38:40.019Z,16.03
2022-10-10T09:41:16.061Z,16.58
2022-10-10T09:43:44.229Z,16.84
2022-10-10T09:46:13.456Z,16.51
2022-10-10T09:48:42.843Z,16.42
2022-10-10T09:51:15.522Z,16.39
2022-10-10T09:53:44.262Z,16.67
2022-10-10T09:56:19.437Z,16.77
2022-10-10T09:58:49.475Z,17.12
2022-10-10T10:01:21.950Z,16.78
2022-10-10T10:04:23.486Z,16.61
2022-10-10T10:07:06.351Z,16.33
2022-10-10T10:09:34.752Z,16.31
2022-10-10T10:12:03.052Z,16.22
2022-10-10T10:14:36.107Z,15.93
2022-10-10T10:17:09.979Z,16.56
2022-10-10T10:19:39.886Z,17.02
2022-10-10T10:22:28.173Z,16.88
2022-10-10T10:24:56.252Z,17.06
2022-10-10T10:27:26.044Z,17.18
2022-10-10T10:29:56.047Z,17.71
2022-10-10T10:32:40.681Z,17.85
2022-10-10T10:35:18.163Z,18.04
2022-10-10T10:37:59.417Z,18.12
2022-10-10T10:40:34.392Z,18.10
2022-10-10T10:43:20.086Z,17.50
2022-10-10T10:45:59.592Z,17.84
2022-10-10T10:48:34.916Z,18.41
2022-10-10T10:51:14.316Z,19.18
2022-10-10T10:53:50.321Z,19.44
2022-10-10T10:56:27.243Z,19.91
2022-10-10T10:59:39.071Z,19.82
2022-10-10T11:02:06.202Z,19.77
2022-10-10T11:05:20.938Z,20.22
2022-10-10T11:08:02.876Z,20.21
2022-10-10T11:10:39.859Z,20.19
2022-10-10T11:13:20.538Z,20.24
2022-10-10T11:16:06.144Z,20.01
2022-10-10T11:18:39.865Z,20.05
2022-10-10T11:21:12.445Z,20.10
2022-10-10T11:23:44.599Z,20.09
2022-10-10T11:26:19.302Z,20.24
2022-10-10T11:28:52.324Z,20.65
2022-10-10T11:31:25.032Z,20.77
2022-10-10T11:33:57.670Z,20.37
2022-10-10T11:36:31.105Z,20.79
2022-10-10T11:39:05.409Z,20.65
2022-10-10T11:41:36.534Z,20.75
2022-10-10T11:44:10.113Z,20.79
2022-10-10T11:46:43.002Z,21.26
2022-10-10T11:49:21.041Z,21.11
2022-10-10T11:52:31.815Z,20.54
2022-10-10T11:54:58.792Z,20.97
2022-10-10T11:57:32.720Z,21.02
2022-10-10T12:00:05.647Z,21.08
2022-10-10T12:02:36.292Z,21.36
2022-10-10T12:05:06.098Z,21.50
2022-10-10T12:07:42.413Z,21.51
2022-10-10T12:10:18.526Z,21.32
2022-10-10T12:12:49.833Z,20.55
2022-10-10T12:15:28.981Z,20.70
2022-10-10T12:17:57.963Z,20.71
2022-10-10T12:20:34.999Z,20.59
2022-10-10T12:23:22.369Z,20.52
2022-10-10T12:25:50.183Z,20.03
2022-10-10T12:28:27.529Z,20.44
2022-10-10T12:31:20.719Z,20.17
2022-10-10T12:34:04.631Z,19.50
2022-10-10T12:37:11.023Z,19.74
2022-10-10T12:40:29.247Z,19.83
2022-10-10T12:43:23.520Z,19.75
2022-10-10T12:46:19.439Z,19.69
2022-10-10T12:49:15.010Z,19.92
2022-10-10T12:51:44.195Z,20.00
2022-10-10T12:54:25.472Z,19.92
2022-10-10T12:57:07.688Z,19.80
2022-10-10T12:59:37.878Z,19.72
2022-10-10T13:02:12.071Z,19.69
2022-10-10T13:04:43.760Z,19.55
2022-10-10T13:07:16.925Z,19.47
2022-10-10T13:09:48.041Z,19.64
2022-10-10T13:12:28.616Z,19.28
2022-10-10T13:14:57.769Z,19.33
2022-10-10T13:17:28.843Z,19.59
2022-10-10T13:20:02.301Z,19.46
2022-10-10T13:22:32.151Z,19.35
2022-10-10T13:25:01.582Z,19.51
2022-10-10T13:27:34.946Z,19.74
2022-10-10T13:30:02.658Z,20.07
2022-10-10T13:32:34.352Z,19.93
2022-10-10T13:35:05.457Z,19.80
2022-10-10T13:37:33.779Z,19.50
2022-10-10T13:40:02.591Z,19.64
2022-10-10T13:42:35.309Z,19.63
2022-10-10T13:45:29.418Z,19.46
2022-10-10T13:48:12.843Z,19.82
2022-10-10T13:50:56.753Z,19.89
2022-10-10T13:53:32.269Z,19.77
2022-10-10T13:56:05.757Z,19.64
2022-10-10T13:58:42.777Z,19.68
2022-10-10T14:01:25.817Z,19.69
2022-10-10T14:03:57.150Z,19.71
2022-10-10T14:06:27.698Z,19.96
2022-10-10T14:08:57.957Z,19.79
2022-10-10T14:11:29.040Z,19.86
2022-10-10T14:14:05.615Z,19.76
2022-10-10T14:16:33.530Z,19.66
2022-10-10T14:19:01.450Z,19.71
2022-10-10T14:21:29.268Z,19.60
2022-10-10T14:23:57.174Z,19.60
2022-10-10T14:26:25.027Z,19.76
2022-10-10T14:28:53.026Z,19.70
2022-10-10T14:31:22.282Z,19.61
2022-10-10T14:33:50.171Z,19.70
2022-10-10T14:36:17.999Z,19.71
2022-10-10T14:38:46.050Z,19.72
2022-10-10T14:41:14.196Z,19.62
2022-10-10T14:43:45.754Z,19.77
2022-10-10T14:46:18.899Z,19.61
2022-10-10T14:48:48.434Z,19.56
2022-10-10T14:51:34.942Z,19.50
2022-10-10T14:54:12.013Z,19.54
2022-10-10T14:57:09.440Z,19.59
2022-10-10T14:59:46.480Z,19.74
2022-10-10T15:02:19.033Z,19.36
2022-10-10T15:04:48.529Z,19.36
2022-10-10T15:07:16.949Z,19.39
2022-10-10T15:10:19.222Z,19.54
2022-10-10T15:12:33.611Z,19.30
2022-10-10T15:15:01.473Z,19.47
2022-10-10T15:17:30.494Z,19.40
2022-10-10T15:19:59.870Z,19.32
2022-10-10T15:22:28.674Z,19.15
2022-10-10T15:24:56.543Z,19.07
2022-10-10T15:27:25.081Z,19.41
2022-10-10T15:29:52.915Z,19.39
2022-10-10T15:32:21.018Z,19.13
2022-10-10T15:34:49.016Z,19.21
2022-10-10T15:37:19.073Z,19.03
2022-10-10T15:39:48.061Z,19.09
2022-10-10T15:42:22.166Z,19.29
2022-10-10T15:44:51.690Z,19.07
2022-10-10T15:47:20.576Z,19.11
2022-10-10T15:49:48.722Z,19.06
2022-10-10T15:52:22.922Z,19.00
2022-10-10T15:54:51.002Z,18.99
2022-10-10T15:57:19.216Z,18.96
2022-10-10T15:59:47.708Z,18.99
2022-10-10T16:02:16.092Z,18.94
2022-10-10T16:04:44.580Z,18.79
2022-10-10T16:07:25.805Z,18.74
2022-10-10T16:09:58.867Z,18.73
2022-10-10T16:12:26.798Z,18.62
2022-10-10T16:14:54.619Z,18.46
2022-10-10T16:17:23.804Z,18.61
2022-10-10T16:19:52.330Z,18.53
2022-10-10T16:22:20.533Z,18.39
2022-10-10T16:25:17.284Z,18.46
2022-10-10T16:27:38.612Z,18.36
2022-10-10T16:30:07.665Z,18.43
2022-10-10T16:32:41.058Z,18.36
2022-10-10T16:35:10.652Z,18.33
2022-10-10T16:37:38.623Z,18.18
2022-10-10T16:40:07.743Z,18.26
2022-10-10T16:42:35.991Z,18.04
2022-10-10T16:45:06.250Z,17.98
2022-10-10T16:47:34.078Z,17.95
2022-10-10T16:50:01.972Z,17.94
2022-10-10T16:52:29.807Z,17.91
2022-10-10T16:54:57.840Z,17.96
2022-10-10T16:57:25.654Z,18.00
2022-10-10T16:59:53.479Z,17.79
2022-10-10T17:02:24.520Z,17.81
2022-10-10T17:04:53.266Z,17.89
2022-10-10T17:07:21.136Z,17.90
2022-10-10T17:09:48.964Z,17.87
2022-10-10T17:12:16.876Z,17.86
2022-10-10T17:14:44.694Z,17.74
2022-10-10T17:17:13.594Z,17.80
2022-10-10T17:19:43.150Z,17.74
2022-10-10T17:22:10.991Z,17.74
2022-10-10T17:24:38.807Z,17.72
2022-10-10T17:27:06.657Z,17.64
2022-10-10T17:29:34.453Z,17.59
2022-10-10T17:32:06.327Z,17.56
2022-10-10T17:34:35.091Z,17.55
2022-10-10T17:37:05.037Z,17.49
2022-10-10T17:39:32.918Z,17.57
2022-10-10T17:42:01.020Z,17.49
2022-10-10T17:44:28.967Z,17.50
2022-10-10T17:46:56.950Z,17.33
2022-10-10T17:49:24.890Z,17.41
2022-10-10T17:51:52.956Z,17.36
2022-10-10T17:54:22.139Z,17.31
2022-10-10T17:56:49.892Z,17.38
2022-10-10T17:59:17.766Z,17.24
2022-10-10T18:01:45.581Z,17.24
2022-10-10T18:04:16.348Z,17.29
2022-10-10T18:06:44.273Z,17.21
2022-10-10T18:09:12.079Z,17.17
2022-10-10T18:11:41.545Z,17.13
2022-10-10T18:14:09.375Z,17.21
2022-10-10T18:16:37.226Z,16.98
2022-10-10T18:19:07.292Z,17.00
2022-10-10T18:21:35.918Z,17.00
2022-10-10T18:24:03.860Z,17.00
2022-10-10T18:26:31.997Z,17.08
2022-10-10T18:29:01.372Z,16.94
2022-10-10T18:31:31.074Z,16.94
2022-10-10T18:33:58.928Z,16.99
2022-10-10T18:36:29.746Z,16.88
2022-10-10T18:39:00.166Z,16.81
2022-10-10T18:41:33.840Z,16.67
2022-10-10T18:44:04.655Z,16.69
2022-10-10T18:46:33.283Z,16.61
2022-10-10T18:49:01.818Z,16.66
2022-10-10T18:51:30.574Z,16.76
2022-10-10T18:54:02.169Z,16.61
2022-10-10T18:56:31.924Z,16.54
2022-10-10T18:59:02.175Z,16.64
2022-10-10T19:01:35.159Z,16.66
2022-10-10T19:04:04.233Z,16.57
2022-10-10T19:06:32.058Z,16.70
2022-10-10T19:09:01.585Z,16.48
2022-10-10T19:11:31.324Z,16.53
2022-10-10T19:14:00.610Z,16.44
2022-10-10T19:16:29.125Z,16.41
2022-10-10T19:18:59.899Z,16.57
2022-10-10T19:21:28.930Z,16.29
2022-10-10T19:23:57.201Z,16.45
2022-10-10T19:26:25.012Z,16.61
2022-10-10T19:28:52.918Z,16.60
2022-10-10T19:31:22.424Z,16.50
2022-10-10T19:33:53.223Z,16.64
2022-10-10T19:36:22.406Z,16.54
2022-10-10T19:38:50.555Z,16.48
2022-10-10T19:41:18.599Z,16.54
2022-10-10T19:43:49.970Z,16.59
2022-10-10T19:46:19.501Z,16.58
2022-10-10T19:48:47.279Z,16.66
2022-10-10T19:51:16.576Z,16.73
2022-10-10T19:53:46.671Z,16.81
2022-10-10T19:56:16.465Z,16.77
2022-10-10T19:58:44.644Z,16.68
2022-10-10T20:01:14.800Z,16.72
2022-10-10T20:03:43.071Z,16.72
2022-10-10T20:06:11.340Z,16.63
2022-10-10T20:08:39.572Z,16.72
2022-10-10T20:11:09.091Z,16.67
2022-10-10T20:13:37.285Z,16.55
2022-10-10T20:16:09.579Z,16.68
2022-10-10T20:18:39.533Z,16.71
2022-10-10T20:21:15.521Z,16.73
2022-10-10T20:23:44.792Z,16.74
2022-10-10T20:26:16.667Z,16.83
2022-10-10T20:28:45.349Z,16.81
2022-10-10T20:31:19.918Z,16.84
2022-10-10T20:33:48.740Z,16.95
2022-10-10T20:36:17.120Z,16.88
2022-10-10T20:38:45.164Z,16.89
2022-10-10T20:41:14.351Z,16.78
2022-10-10T20:43:42.214Z,16.85
2022-10-10T20:46:13.575Z,16.96
2022-10-10T20:48:42.604Z,17.03
2022-10-10T20:51:12.231Z,16.85
2022-10-10T20:53:42.393Z,17.03
2022-10-10T20:56:12.312Z,16.98
2022-10-10T20:58:41.836Z,16.98
2022-10-10T21:01:12.073Z,17.05
2022-10-10T21:03:40.641Z,16.96
2022-10-10T21:06:11.395Z,17.11
2022-10-10T21:08:39.731Z,17.06
2022-10-10T21:11:09.709Z,17.11
2022-10-10T21:13:40.400Z,16.97
2022-10-10T21:16:12.864Z,16.80
2022-10-10T21:18:41.042Z,16.99
2022-10-10T21:21:09.397Z,16.92
2022-10-10T21:23:38.870Z,16.77
2022-10-10T21:26:08.183Z,16.91
2022-10-10T21:28:36.318Z,16.63
2022-10-10T21:31:05.267Z,16.70
2022-10-10T21:33:35.561Z,16.83
2022-10-10T21:36:03.810Z,16.87
2022-10-10T21:38:32.320Z,16.78
2022-10-10T21:41:05.980Z,16.92
2022-10-10T21:43:34.398Z,16.62
2022-10-10T21:46:06.232Z,16.49
2022-10-10T21:48:36.060Z,16.59
2022-10-10T21:51:04.067Z,16.74
2022-10-10T21:53:32.250Z,16.73
2022-10-10T21:56:00.100Z,16.88
2022-10-10T21:58:27.957Z,16.77
2022-10-10T22:00:55.851Z,16.75
2022-10-10T22:03:23.701Z,16.77
2022-10-10T22:05:52.857Z,16.70
2022-10-10T22:08:20.662Z,16.75
2022-10-10T22:10:48.467Z,16.61
2022-10-10T22:13:16.284Z,16.66
2022-10-10T22:15:44.434Z,16.66
2022-10-10T22:18:12.234Z,16.45
2022-10-10T22:20:40.115Z,16.36
2022-10-10T22:23:09.341Z,16.50
2022-10-10T22:25:37.249Z,16.42
2022-10-10T22:28:06.353Z,16.49
2022-10-10T22:30:34.408Z,16.55
2022-10-10T22:33:02.297Z,16.30
2022-10-10T22:35:30.092Z,16.39
2022-10-10T22:37:57.905Z,16.47
2022-10-10T22:40:27.279Z,16.33
2022-10-10T22:42:55.425Z,16.13
2022-10-10T22:45:23.973Z,16.24
2022-10-10T22:47:51.874Z,16.29
2022-10-10T22:50:19.940Z,16.03
2022-10-10T22:52:47.860Z,16.02
2022-10-10T22:55:18.639Z,15.82
2022-10-10T22:57:48.248Z,16.14
2022-10-10T23:00:17.263Z,16.10
2022-10-10T23:02:45.230Z,15.76
2022-10-10T23:05:13.172Z,15.68
2022-10-10T23:07:41.017Z,15.79
2022-10-10T23:10:10.229Z,15.66
2022-10-10T23:12:38.569Z,15.62
2022-10-10T23:15:08.809Z,15.44
2022-10-10T23:17:39.048Z,15.67
2022-10-10T23:20:08.364Z,15.36
2022-10-10T23:22:36.460Z,15.47
2022-10-10T23:25:04.754Z,15.55
2022-10-10T23:27:32.603Z,15.39
2022-10-10T23:30:00.484Z,15.30
2022-10-10T23:32:30.397Z,15.28
2022-10-10T23:34:58.576Z,15.31
2022-10-10T23:37:27.951Z,15.26
2022-10-10T23:39:55.844Z,15.06
2022-10-10T23:42:23.704Z,15.26
2022-10-10T23:44:51.588Z,15.13
2022-10-10T23:47:19.404Z,14.97
2022-10-10T23:49:48.568Z,15.13
2022-10-10T23:52:16.584Z,14.93
2022-10-10T23:54:44.420Z,14.72
2022-10-10T23:57:12.243Z,14.72
2022-10-10T23:59:40.139Z,14.90
